sensor_id;sensor_type;location;lat;lon;timestamp;P1;durP1;ratioP1;P2;durP2;ratioP2
38615;SDS011;24370;51.986;4.666;2023-06-14T00:01:11;1999.90;;;999.90;;
38615;SDS011;24370;51.986;4.666;2023-06-14T00:03:38;1999.90;;;999.90;;
38615;SDS011;24370;51.986;4.666;2023-06-14T00:06:04;1999.90;;;999.90;;
38615;SDS011;24370;51.986;4.666;2023-06-14T00:08:29;1999.90;;;999.90;;
38615;SDS011;24370;51.986;4.666;2023-06-14T00:10:55;1999.90;;;999.90;;
38615;SDS011;24370;51.986;4.666;2023-06-14T00:13:20;1999.90;;;999.90;;
38615;SDS011;24370;51.986;4.666;2023-06-14T00:15:46;1999.90;;;999.90;;
38615;SDS011;24370;51.986;4.666;2023-06-14T00:18:12;1999.90;;;999.90;;
38615;SDS011;24370;51.986;4.666;2023-06-14T00:20:38;1999.90;;;999.90;;
38615;SDS011;24370;51.986;4.666;2023-06-14T00:23:04;1999.90;;;999.90;;
38615;SDS011;24370;51.986;4.666;2023-06-14T00:25:30;1999.90;;;999.90;;
38615;SDS011;24370;51.986;4.666;2023-06-14T00:27:55;1999.90;;;999.90;;
38615;SDS011;24370;51.986;4.666;2023-06-14T00:30:21;1999.90;;;999.90;;
38615;SDS011;24370;51.986;4.666;2023-06-14T00:32:47;1999.90;;;999.90;;
38615;SDS011;24370;51.986;4.666;2023-06-14T00:35:13;1999.90;;;999.90;;
38615;SDS011;24370;51.986;4.666;2023-06-14T00:37:39;1999.90;;;999.90;;
38615;SDS011;24370;51.986;4.666;2023-06-14T00:40:04;1999.90;;;999.90;;
38615;SDS011;24370;51.986;4.666;2023-06-14T00:42:31;1999.90;;;999.90;;
38615;SDS011;24370;51.986;4.666;2023-06-14T00:44:56;1999.90;;;999.90;;
38615;SDS011;24370;51.986;4.666;2023-06-14T00:47:22;1999.90;;;999.90;;
38615;SDS011;24370;51.986;4.666;2023-06-14T00:49:51;1999.90;;;999.90;;
38615;SDS011;24370;51.986;4.666;2023-06-14T00:52:18;1999.90;;;999.90;;
38615;SDS011;24370;51.986;4.666;2023-06-14T00:54:44;1999.90;;;999.90;;
38615;SDS011;24370;51.986;4.666;2023-06-14T00:57:10;1999.90;;;999.90;;
38615;SDS011;24370;51.986;4.666;2023-06-14T00:59:44;1999.90;;;999.90;;
38615;SDS011;24370;51.986;4.666;2023-06-14T01:02:11;1999.90;;;999.90;;
38615;SDS011;24370;51.986;4.666;2023-06-14T01:04:39;1999.90;;;999.90;;
38615;SDS011;24370;51.986;4.666;2023-06-14T01:10:25;1999.90;;;999.90;;
38615;SDS011;24370;51.986;4.666;2023-06-14T01:12:58;1999.90;;;999.90;;
38615;SDS011;24370;51.986;4.666;2023-06-14T01:15:32;1999.90;;;999.90;;
38615;SDS011;24370;51.986;4.666;2023-06-14T01:18:02;1999.90;;;999.90;;
38615;SDS011;24370;51.986;4.666;2023-06-14T01:20:29;1999.90;;;999.90;;
38615;SDS011;24370;51.986;4.666;2023-06-14T01:22:56;1999.90;;;999.90;;
38615;SDS011;24370;51.986;4.666;2023-06-14T01:25:22;1999.90;;;999.90;;
38615;SDS011;24370;51.986;4.666;2023-06-14T01:27:58;1999.90;;;999.90;;
38615;SDS011;24370;51.986;4.666;2023-06-14T01:30:25;1999.90;;;999.90;;
38615;SDS011;24370;51.986;4.666;2023-06-14T01:32:51;1999.90;;;999.90;;
38615;SDS011;24370;51.986;4.666;2023-06-14T01:35:19;1999.90;;;999.90;;
38615;SDS011;24370;51.986;4.666;2023-06-14T01:37:46;1999.90;;;999.90;;
38615;SDS011;24370;51.986;4.666;2023-06-14T01:40:13;1999.90;;;999.90;;
38615;SDS011;24370;51.986;4.666;2023-06-14T01:42:40;1999.90;;;999.90;;
38615;SDS011;24370;51.986;4.666;2023-06-14T01:45:06;1999.90;;;999.90;;
38615;SDS011;24370;51.986;4.666;2023-06-14T01:47:32;1999.90;;;999.90;;
38615;SDS011;24370;51.986;4.666;2023-06-14T01:49:59;1999.90;;;999.90;;
38615;SDS011;24370;51.986;4.666;2023-06-14T01:52:24;1999.90;;;999.90;;
38615;SDS011;24370;51.986;4.666;2023-06-14T01:54:50;1999.90;;;999.90;;
38615;SDS011;24370;51.986;4.666;2023-06-14T01:57:16;1999.90;;;999.90;;
38615;SDS011;24370;51.986;4.666;2023-06-14T01:59:41;1999.90;;;999.90;;
38615;SDS011;24370;51.986;4.666;2023-06-14T02:02:07;1999.90;;;999.90;;
38615;SDS011;24370;51.986;4.666;2023-06-14T02:04:33;1999.90;;;999.90;;
38615;SDS011;24370;51.986;4.666;2023-06-14T02:06:58;1999.90;;;999.90;;
38615;SDS011;24370;51.986;4.666;2023-06-14T02:09:24;1999.90;;;999.90;;
38615;SDS011;24370;51.986;4.666;2023-06-14T02:11:50;1999.90;;;999.90;;
38615;SDS011;24370;51.986;4.666;2023-06-14T02:14:15;1999.90;;;999.90;;
38615;SDS011;24370;51.986;4.666;2023-06-14T02:16:41;1999.90;;;999.90;;
38615;SDS011;24370;51.986;4.666;2023-06-14T02:19:14;1999.90;;;999.90;;
38615;SDS011;24370;51.986;4.666;2023-06-14T02:21:43;1999.90;;;999.90;;
38615;SDS011;24370;51.986;4.666;2023-06-14T02:24:09;1999.90;;;999.90;;
38615;SDS011;24370;51.986;4.666;2023-06-14T02:26:35;1999.90;;;999.90;;
38615;SDS011;24370;51.986;4.666;2023-06-14T02:29:03;1999.90;;;999.90;;
38615;SDS011;24370;51.986;4.666;2023-06-14T02:31:29;1999.90;;;999.90;;
38615;SDS011;24370;51.986;4.666;2023-06-14T02:33:54;1999.90;;;999.90;;
38615;SDS011;24370;51.986;4.666;2023-06-14T02:36:20;1999.90;;;999.90;;
38615;SDS011;24370;51.986;4.666;2023-06-14T02:38:45;1999.90;;;999.90;;
38615;SDS011;24370;51.986;4.666;2023-06-14T02:41:11;1999.90;;;999.90;;
38615;SDS011;24370;51.986;4.666;2023-06-14T02:43:37;1999.90;;;999.90;;
38615;SDS011;24370;51.986;4.666;2023-06-14T02:46:02;1999.90;;;999.90;;
38615;SDS011;24370;51.986;4.666;2023-06-14T02:48:29;1999.90;;;999.90;;
38615;SDS011;24370;51.986;4.666;2023-06-14T02:50:55;1999.90;;;999.90;;
38615;SDS011;24370;51.986;4.666;2023-06-14T02:53:21;1999.90;;;999.90;;
38615;SDS011;24370;51.986;4.666;2023-06-14T02:55:46;1999.90;;;999.90;;
38615;SDS011;24370;51.986;4.666;2023-06-14T02:58:13;1999.90;;;999.90;;
38615;SDS011;24370;51.986;4.666;2023-06-14T03:00:39;1999.90;;;999.90;;
38615;SDS011;24370;51.986;4.666;2023-06-14T03:03:05;1999.90;;;999.90;;
38615;SDS011;24370;51.986;4.666;2023-06-14T03:05:38;1999.90;;;999.90;;
38615;SDS011;24370;51.986;4.666;2023-06-14T03:08:06;1999.90;;;999.90;;
38615;SDS011;24370;51.986;4.666;2023-06-14T03:10:32;1999.90;;;999.90;;
38615;SDS011;24370;51.986;4.666;2023-06-14T03:12:57;1999.90;;;999.90;;
38615;SDS011;24370;51.986;4.666;2023-06-14T03:15:23;1999.90;;;999.90;;
38615;SDS011;24370;51.986;4.666;2023-06-14T03:17:49;1999.90;;;999.90;;
38615;SDS011;24370;51.986;4.666;2023-06-14T03:20:15;1999.90;;;999.90;;
38615;SDS011;24370;51.986;4.666;2023-06-14T03:22:41;1999.90;;;999.90;;
38615;SDS011;24370;51.986;4.666;2023-06-14T03:25:06;1999.90;;;999.90;;
38615;SDS011;24370;51.986;4.666;2023-06-14T03:27:37;1999.90;;;999.90;;
38615;SDS011;24370;51.986;4.666;2023-06-14T03:30:02;1999.90;;;999.90;;
38615;SDS011;24370;51.986;4.666;2023-06-14T03:32:28;1999.90;;;999.90;;
38615;SDS011;24370;51.986;4.666;2023-06-14T03:34:54;1999.90;;;999.90;;
38615;SDS011;24370;51.986;4.666;2023-06-14T03:37:20;1999.90;;;999.90;;
38615;SDS011;24370;51.986;4.666;2023-06-14T03:39:45;1999.90;;;999.90;;
38615;SDS011;24370;51.986;4.666;2023-06-14T03:42:13;1999.90;;;999.90;;
38615;SDS011;24370;51.986;4.666;2023-06-14T03:44:39;1999.90;;;999.90;;
38615;SDS011;24370;51.986;4.666;2023-06-14T03:47:04;1999.90;;;999.90;;
38615;SDS011;24370;51.986;4.666;2023-06-14T03:49:30;1999.90;;;999.90;;
38615;SDS011;24370;51.986;4.666;2023-06-14T03:51:55;1999.90;;;999.90;;
38615;SDS011;24370;51.986;4.666;2023-06-14T03:54:21;1999.90;;;999.90;;
38615;SDS011;24370;51.986;4.666;2023-06-14T03:56:46;1999.90;;;999.90;;
38615;SDS011;24370;51.986;4.666;2023-06-14T03:59:12;1999.90;;;999.90;;
38615;SDS011;24370;51.986;4.666;2023-06-14T04:01:37;1999.90;;;999.90;;
38615;SDS011;24370;51.986;4.666;2023-06-14T04:04:03;1999.90;;;999.90;;
38615;SDS011;24370;51.986;4.666;2023-06-14T04:06:29;1999.90;;;999.90;;
38615;SDS011;24370;51.986;4.666;2023-06-14T04:08:57;1999.90;;;999.90;;
38615;SDS011;24370;51.986;4.666;2023-06-14T04:11:27;1999.90;;;999.90;;
38615;SDS011;24370;51.986;4.666;2023-06-14T04:13:52;1999.90;;;999.90;;
38615;SDS011;24370;51.986;4.666;2023-06-14T04:16:18;1999.90;;;999.90;;
38615;SDS011;24370;51.986;4.666;2023-06-14T04:18:44;1999.90;;;999.90;;
38615;SDS011;24370;51.986;4.666;2023-06-14T04:21:11;1999.90;;;999.90;;
38615;SDS011;24370;51.986;4.666;2023-06-14T04:23:37;1999.90;;;999.90;;
38615;SDS011;24370;51.986;4.666;2023-06-14T04:26:03;1999.90;;;999.90;;
38615;SDS011;24370;51.986;4.666;2023-06-14T04:28:28;1999.90;;;999.90;;
38615;SDS011;24370;51.986;4.666;2023-06-14T04:30:53;1999.90;;;999.90;;
38615;SDS011;24370;51.986;4.666;2023-06-14T04:33:19;1999.90;;;999.90;;
38615;SDS011;24370;51.986;4.666;2023-06-14T04:35:44;1999.90;;;999.90;;
38615;SDS011;24370;51.986;4.666;2023-06-14T04:38:12;1999.90;;;999.90;;
38615;SDS011;24370;51.986;4.666;2023-06-14T04:40:38;1999.90;;;999.90;;
38615;SDS011;24370;51.986;4.666;2023-06-14T04:43:10;1999.90;;;999.90;;
38615;SDS011;24370;51.986;4.666;2023-06-14T04:45:42;1999.90;;;999.90;;
38615;SDS011;24370;51.986;4.666;2023-06-14T04:48:10;1999.90;;;999.90;;
38615;SDS011;24370;51.986;4.666;2023-06-14T04:50:36;1999.90;;;999.90;;
38615;SDS011;24370;51.986;4.666;2023-06-14T04:53:02;1999.90;;;999.90;;
38615;SDS011;24370;51.986;4.666;2023-06-14T04:55:27;1999.90;;;999.90;;
38615;SDS011;24370;51.986;4.666;2023-06-14T04:57:53;1999.90;;;999.90;;
38615;SDS011;24370;51.986;4.666;2023-06-14T05:00:19;1999.90;;;999.90;;
38615;SDS011;24370;51.986;4.666;2023-06-14T05:02:48;1999.90;;;999.90;;
38615;SDS011;24370;51.986;4.666;2023-06-14T05:05:14;1999.90;;;999.90;;
38615;SDS011;24370;51.986;4.666;2023-06-14T05:07:40;1999.90;;;999.90;;
38615;SDS011;24370;51.986;4.666;2023-06-14T05:10:06;1999.90;;;999.90;;
38615;SDS011;24370;51.986;4.666;2023-06-14T05:12:32;1999.90;;;999.90;;
38615;SDS011;24370;51.986;4.666;2023-06-14T05:14:57;1999.90;;;999.90;;
38615;SDS011;24370;51.986;4.666;2023-06-14T05:17:23;1999.90;;;999.90;;
38615;SDS011;24370;51.986;4.666;2023-06-14T05:19:49;1999.90;;;999.90;;
38615;SDS011;24370;51.986;4.666;2023-06-14T05:22:14;1999.90;;;999.90;;
38615;SDS011;24370;51.986;4.666;2023-06-14T05:24:40;1999.90;;;999.90;;
38615;SDS011;24370;51.986;4.666;2023-06-14T05:27:06;1999.90;;;999.90;;
38615;SDS011;24370;51.986;4.666;2023-06-14T05:29:32;1999.90;;;999.90;;
38615;SDS011;24370;51.986;4.666;2023-06-14T05:31:57;1999.90;;;999.90;;
38615;SDS011;24370;51.986;4.666;2023-06-14T05:34:23;1999.90;;;999.90;;
38615;SDS011;24370;51.986;4.666;2023-06-14T05:36:48;1999.90;;;999.90;;
38615;SDS011;24370;51.986;4.666;2023-06-14T05:39:13;1999.90;;;999.90;;
38615;SDS011;24370;51.986;4.666;2023-06-14T05:41:39;1999.90;;;999.90;;
38615;SDS011;24370;51.986;4.666;2023-06-14T05:44:04;1999.90;;;999.90;;
38615;SDS011;24370;51.986;4.666;2023-06-14T05:46:29;1999.90;;;999.90;;
38615;SDS011;24370;51.986;4.666;2023-06-14T05:48:55;1999.90;;;999.90;;
38615;SDS011;24370;51.986;4.666;2023-06-14T05:51:21;1999.90;;;999.90;;
38615;SDS011;24370;51.986;4.666;2023-06-14T05:53:47;1999.90;;;999.90;;
38615;SDS011;24370;51.986;4.666;2023-06-14T05:56:16;1999.90;;;999.90;;
38615;SDS011;24370;51.986;4.666;2023-06-14T05:58:43;1999.90;;;999.90;;
38615;SDS011;24370;51.986;4.666;2023-06-14T06:01:09;1999.90;;;999.90;;
38615;SDS011;24370;51.986;4.666;2023-06-14T06:03:34;1999.90;;;999.90;;
38615;SDS011;24370;51.986;4.666;2023-06-14T06:06:00;1999.90;;;999.90;;
38615;SDS011;24370;51.986;4.666;2023-06-14T06:08:26;1999.90;;;999.90;;
38615;SDS011;24370;51.986;4.666;2023-06-14T06:10:52;1999.90;;;999.90;;
38615;SDS011;24370;51.986;4.666;2023-06-14T06:13:17;1999.90;;;999.90;;
38615;SDS011;24370;51.986;4.666;2023-06-14T06:15:42;1999.90;;;999.90;;
38615;SDS011;24370;51.986;4.666;2023-06-14T06:18:08;1999.90;;;999.90;;
38615;SDS011;24370;51.986;4.666;2023-06-14T06:20:33;1999.90;;;999.90;;
38615;SDS011;24370;51.986;4.666;2023-06-14T06:22:59;1999.90;;;999.90;;
38615;SDS011;24370;51.986;4.666;2023-06-14T06:25:25;1999.90;;;999.90;;
38615;SDS011;24370;51.986;4.666;2023-06-14T06:27:52;1999.90;;;999.90;;
38615;SDS011;24370;51.986;4.666;2023-06-14T06:30:18;1999.90;;;999.90;;
38615;SDS011;24370;51.986;4.666;2023-06-14T06:32:44;1999.90;;;999.90;;
38615;SDS011;24370;51.986;4.666;2023-06-14T06:35:10;1999.90;;;999.90;;
38615;SDS011;24370;51.986;4.666;2023-06-14T06:37:37;1999.90;;;999.90;;
38615;SDS011;24370;51.986;4.666;2023-06-14T06:40:03;1999.90;;;999.90;;
38615;SDS011;24370;51.986;4.666;2023-06-14T06:42:30;1999.90;;;999.90;;
38615;SDS011;24370;51.986;4.666;2023-06-14T06:44:56;1999.90;;;999.90;;
38615;SDS011;24370;51.986;4.666;2023-06-14T06:47:21;1999.90;;;999.90;;
38615;SDS011;24370;51.986;4.666;2023-06-14T06:49:47;1999.90;;;999.90;;
38615;SDS011;24370;51.986;4.666;2023-06-14T06:52:13;1999.90;;;999.90;;
38615;SDS011;24370;51.986;4.666;2023-06-14T06:54:38;1999.90;;;999.90;;
38615;SDS011;24370;51.986;4.666;2023-06-14T06:57:04;1999.90;;;999.90;;
38615;SDS011;24370;51.986;4.666;2023-06-14T06:59:31;1999.90;;;999.90;;
38615;SDS011;24370;51.986;4.666;2023-06-14T07:01:56;1999.90;;;999.90;;
38615;SDS011;24370;51.986;4.666;2023-06-14T07:04:22;1999.90;;;999.90;;
38615;SDS011;24370;51.986;4.666;2023-06-14T07:06:47;1999.90;;;999.90;;
38615;SDS011;24370;51.986;4.666;2023-06-14T07:09:13;1999.90;;;999.90;;
38615;SDS011;24370;51.986;4.666;2023-06-14T07:11:39;1999.90;;;999.90;;
38615;SDS011;24370;51.986;4.666;2023-06-14T07:14:05;1999.90;;;999.90;;
38615;SDS011;24370;51.986;4.666;2023-06-14T07:16:30;1999.90;;;999.90;;
38615;SDS011;24370;51.986;4.666;2023-06-14T07:18:56;1999.90;;;999.90;;
38615;SDS011;24370;51.986;4.666;2023-06-14T07:21:21;1999.90;;;999.90;;
38615;SDS011;24370;51.986;4.666;2023-06-14T07:23:46;1999.90;;;999.90;;
38615;SDS011;24370;51.986;4.666;2023-06-14T07:26:12;1999.90;;;999.90;;
38615;SDS011;24370;51.986;4.666;2023-06-14T07:28:37;1999.90;;;999.90;;
38615;SDS011;24370;51.986;4.666;2023-06-14T07:31:02;1999.90;;;999.90;;
38615;SDS011;24370;51.986;4.666;2023-06-14T07:33:28;1999.90;;;999.90;;
38615;SDS011;24370;51.986;4.666;2023-06-14T07:35:53;1999.90;;;999.90;;
38615;SDS011;24370;51.986;4.666;2023-06-14T07:38:19;1999.90;;;999.90;;
38615;SDS011;24370;51.986;4.666;2023-06-14T07:40:44;1999.90;;;999.90;;
38615;SDS011;24370;51.986;4.666;2023-06-14T07:43:10;1999.90;;;999.90;;
38615;SDS011;24370;51.986;4.666;2023-06-14T07:45:35;1999.90;;;999.90;;
38615;SDS011;24370;51.986;4.666;2023-06-14T07:48:02;1999.90;;;999.90;;
38615;SDS011;24370;51.986;4.666;2023-06-14T07:50:27;1999.90;;;999.90;;
38615;SDS011;24370;51.986;4.666;2023-06-14T07:52:53;1999.90;;;999.90;;
38615;SDS011;24370;51.986;4.666;2023-06-14T07:55:19;1999.90;;;999.90;;
38615;SDS011;24370;51.986;4.666;2023-06-14T07:57:44;1999.90;;;999.90;;
38615;SDS011;24370;51.986;4.666;2023-06-14T08:00:10;1999.90;;;999.90;;
38615;SDS011;24370;51.986;4.666;2023-06-14T08:02:41;1999.90;;;999.90;;
38615;SDS011;24370;51.986;4.666;2023-06-14T08:05:07;1999.90;;;999.90;;
38615;SDS011;24370;51.986;4.666;2023-06-14T08:07:34;1999.90;;;999.90;;
38615;SDS011;24370;51.986;4.666;2023-06-14T08:10:00;1999.90;;;999.90;;
38615;SDS011;24370;51.986;4.666;2023-06-14T08:12:25;1999.90;;;999.90;;
38615;SDS011;24370;51.986;4.666;2023-06-14T08:14:51;1999.90;;;999.90;;
38615;SDS011;24370;51.986;4.666;2023-06-14T08:17:16;1999.90;;;999.90;;
38615;SDS011;24370;51.986;4.666;2023-06-14T08:19:42;1999.90;;;999.90;;
38615;SDS011;24370;51.986;4.666;2023-06-14T08:22:07;1999.90;;;999.90;;
38615;SDS011;24370;51.986;4.666;2023-06-14T08:24:33;1999.90;;;999.90;;
38615;SDS011;24370;51.986;4.666;2023-06-14T08:26:58;1999.90;;;999.90;;
38615;SDS011;24370;51.986;4.666;2023-06-14T08:29:26;1999.90;;;999.90;;
38615;SDS011;24370;51.986;4.666;2023-06-14T08:31:54;1999.90;;;999.90;;
38615;SDS011;24370;51.986;4.666;2023-06-14T08:34:20;1999.90;;;999.90;;
38615;SDS011;24370;51.986;4.666;2023-06-14T08:36:45;1999.90;;;999.90;;
38615;SDS011;24370;51.986;4.666;2023-06-14T08:39:10;1999.90;;;999.90;;
38615;SDS011;24370;51.986;4.666;2023-06-14T08:41:36;1999.90;;;999.90;;
38615;SDS011;24370;51.986;4.666;2023-06-14T08:44:02;1999.90;;;999.90;;
38615;SDS011;24370;51.986;4.666;2023-06-14T08:46:27;1999.90;;;999.90;;
38615;SDS011;24370;51.986;4.666;2023-06-14T08:48:59;1999.90;;;999.90;;
38615;SDS011;24370;51.986;4.666;2023-06-14T08:51:25;1999.90;;;999.90;;
38615;SDS011;24370;51.986;4.666;2023-06-14T08:53:58;1999.90;;;999.90;;
38615;SDS011;24370;51.986;4.666;2023-06-14T08:56:26;1999.90;;;999.90;;
38615;SDS011;24370;51.986;4.666;2023-06-14T08:58:54;1999.90;;;999.90;;
38615;SDS011;24370;51.986;4.666;2023-06-14T09:01:21;1999.90;;;999.90;;
38615;SDS011;24370;51.986;4.666;2023-06-14T09:03:48;1999.90;;;999.90;;
38615;SDS011;24370;51.986;4.666;2023-06-14T09:06:14;1999.90;;;999.90;;
38615;SDS011;24370;51.986;4.666;2023-06-14T09:08:44;1999.90;;;999.90;;
38615;SDS011;24370;51.986;4.666;2023-06-14T09:11:12;1999.90;;;999.90;;
38615;SDS011;24370;51.986;4.666;2023-06-14T09:13:43;967.75;;;884.53;;
38615;SDS011;24370;51.986;4.666;2023-06-14T09:16:09;964.65;;;881.95;;
38615;SDS011;24370;51.986;4.666;2023-06-14T09:18:35;968.97;;;884.65;;
38615;SDS011;24370;51.986;4.666;2023-06-14T09:21:09;971.22;;;887.35;;
38615;SDS011;24370;51.986;4.666;2023-06-14T09:23:37;975.42;;;890.50;;
38615;SDS011;24370;51.986;4.666;2023-06-14T09:26:09;972.80;;;887.15;;
38615;SDS011;24370;51.986;4.666;2023-06-14T09:28:43;1017.45;;;923.67;;
38615;SDS011;24370;51.986;4.666;2023-06-14T09:31:13;1035.10;;;938.50;;
38615;SDS011;24370;51.986;4.666;2023-06-14T09:33:44;988.50;;;901.00;;
38615;SDS011;24370;51.986;4.666;2023-06-14T09:36:23;994.20;;;904.95;;
38615;SDS011;24370;51.986;4.666;2023-06-14T09:39:03;1020.58;;;927.13;;
38615;SDS011;24370;51.986;4.666;2023-06-14T09:41:32;973.65;;;889.25;;
38615;SDS011;24370;51.986;4.666;2023-06-14T09:44:05;946.85;;;867.20;;
38615;SDS011;24370;51.986;4.666;2023-06-14T09:46:32;1007.08;;;915.65;;
38615;SDS011;24370;51.986;4.666;2023-06-14T09:48:58;963.35;;;880.35;;
38615;SDS011;24370;51.986;4.666;2023-06-14T09:51:24;975.58;;;891.85;;
38615;SDS011;24370;51.986;4.666;2023-06-14T09:53:51;937.20;;;859.35;;
38615;SDS011;24370;51.986;4.666;2023-06-14T09:56:19;942.13;;;863.92;;
38615;SDS011;24370;51.986;4.666;2023-06-14T09:58:53;947.85;;;868.42;;
38615;SDS011;24370;51.986;4.666;2023-06-14T10:01:20;1030.97;;;936.35;;
38615;SDS011;24370;51.986;4.666;2023-06-14T10:03:47;1007.80;;;918.42;;
38615;SDS011;24370;51.986;4.666;2023-06-14T10:06:15;988.25;;;902.75;;
38615;SDS011;24370;51.986;4.666;2023-06-14T10:08:42;1000.83;;;913.03;;
38615;SDS011;24370;51.986;4.666;2023-06-14T10:11:08;1004.25;;;916.53;;
38615;SDS011;24370;51.986;4.666;2023-06-14T10:13:34;979.85;;;896.13;;
38615;SDS011;24370;51.986;4.666;2023-06-14T10:16:20;975.95;;;892.50;;
38615;SDS011;24370;51.986;4.666;2023-06-14T10:22:01;978.22;;;895.17;;
38615;SDS011;24370;51.986;4.666;2023-06-14T10:24:32;969.08;;;887.20;;
38615;SDS011;24370;51.986;4.666;2023-06-14T10:27:01;979.72;;;896.03;;
38615;SDS011;24370;51.986;4.666;2023-06-14T10:29:29;986.20;;;900.50;;
38615;SDS011;24370;51.986;4.666;2023-06-14T10:31:58;977.13;;;893.95;;
38615;SDS011;24370;51.986;4.666;2023-06-14T10:34:28;984.00;;;898.80;;
38615;SDS011;24370;51.986;4.666;2023-06-14T10:37:05;988.85;;;902.45;;
38615;SDS011;24370;51.986;4.666;2023-06-14T10:39:53;975.95;;;892.20;;
38615;SDS011;24370;51.986;4.666;2023-06-14T10:42:18;984.15;;;898.15;;
38615;SDS011;24370;51.986;4.666;2023-06-14T10:47:11;974.67;;;892.08;;
38615;SDS011;24370;51.986;4.666;2023-06-14T10:49:50;970.97;;;887.65;;
38615;SDS011;24370;51.986;4.666;2023-06-14T10:52:19;986.78;;;900.13;;
38615;SDS011;24370;51.986;4.666;2023-06-14T10:57:24;970.85;;;887.50;;
38615;SDS011;24370;51.986;4.666;2023-06-14T10:59:50;981.13;;;896.22;;
38615;SDS011;24370;51.986;4.666;2023-06-14T11:04:47;985.60;;;899.67;;
38615;SDS011;24370;51.986;4.666;2023-06-14T11:12:58;1022.45;;;930.33;;
38615;SDS011;24370;51.986;4.666;2023-06-14T11:15:30;998.67;;;910.53;;
38615;SDS011;24370;51.986;4.666;2023-06-14T11:17:56;1007.88;;;918.95;;
38615;SDS011;24370;51.986;4.666;2023-06-14T11:20:26;1047.43;;;951.95;;
38615;SDS011;24370;51.986;4.666;2023-06-14T11:22:52;1026.07;;;933.00;;
38615;SDS011;24370;51.986;4.666;2023-06-14T11:25:19;1007.42;;;918.90;;
38615;SDS011;24370;51.986;4.666;2023-06-14T11:27:45;1030.10;;;936.83;;
38615;SDS011;24370;51.986;4.666;2023-06-14T11:30:11;1011.55;;;921.03;;
38615;SDS011;24370;51.986;4.666;2023-06-14T11:32:38;1026.90;;;934.13;;
38615;SDS011;24370;51.986;4.666;2023-06-14T11:35:04;1014.92;;;924.67;;
38615;SDS011;24370;51.986;4.666;2023-06-14T11:37:30;1010.28;;;920.83;;
38615;SDS011;24370;51.986;4.666;2023-06-14T11:39:58;999.17;;;911.60;;
38615;SDS011;24370;51.986;4.666;2023-06-14T11:42:24;1006.88;;;918.50;;
38615;SDS011;24370;51.986;4.666;2023-06-14T11:44:53;1007.78;;;919.03;;
38615;SDS011;24370;51.986;4.666;2023-06-14T11:47:18;1017.20;;;927.10;;
38615;SDS011;24370;51.986;4.666;2023-06-14T11:49:44;1033.15;;;939.38;;
38615;SDS011;24370;51.986;4.666;2023-06-14T11:52:09;1005.45;;;916.83;;
38615;SDS011;24370;51.986;4.666;2023-06-14T11:54:36;1024.20;;;931.40;;
38615;SDS011;24370;51.986;4.666;2023-06-14T11:57:02;1004.67;;;915.58;;
38615;SDS011;24370;51.986;4.666;2023-06-14T11:59:29;1036.70;;;941.55;;
38615;SDS011;24370;51.986;4.666;2023-06-14T12:01:56;1051.95;;;953.00;;
38615;SDS011;24370;51.986;4.666;2023-06-14T12:04:26;1063.88;;;961.65;;
38615;SDS011;24370;51.986;4.666;2023-06-14T12:06:52;1033.28;;;938.10;;
38615;SDS011;24370;51.986;4.666;2023-06-14T12:09:18;1055.25;;;954.90;;
38615;SDS011;24370;51.986;4.666;2023-06-14T12:11:45;1023.00;;;928.55;;
38615;SDS011;24370;51.986;4.666;2023-06-14T12:14:10;1134.25;;;999.90;;
38615;SDS011;24370;51.986;4.666;2023-06-14T12:16:39;1108.60;;;997.22;;
38615;SDS011;24370;51.986;4.666;2023-06-14T12:19:13;1079.47;;;972.78;;
38615;SDS011;24370;51.986;4.666;2023-06-14T12:21:39;1126.95;;;999.90;;
38615;SDS011;24370;51.986;4.666;2023-06-14T12:24:06;1111.38;;;996.97;;
38615;SDS011;24370;51.986;4.666;2023-06-14T12:26:32;1100.13;;;989.40;;
38615;SDS011;24370;51.986;4.666;2023-06-14T12:28:58;1085.55;;;978.55;;
38615;SDS011;24370;51.986;4.666;2023-06-14T12:31:24;1138.47;;;999.90;;
38615;SDS011;24370;51.986;4.666;2023-06-14T12:33:49;1141.03;;;999.90;;
38615;SDS011;24370;51.986;4.666;2023-06-14T12:36:15;1165.95;;;999.90;;
38615;SDS011;24370;51.986;4.666;2023-06-14T12:38:41;1160.20;;;999.90;;
38615;SDS011;24370;51.986;4.666;2023-06-14T12:41:07;1151.22;;;999.90;;
38615;SDS011;24370;51.986;4.666;2023-06-14T12:43:33;1155.28;;;999.90;;
38615;SDS011;24370;51.986;4.666;2023-06-14T12:45:59;1189.50;;;999.90;;
38615;SDS011;24370;51.986;4.666;2023-06-14T12:48:25;1156.72;;;999.90;;
38615;SDS011;24370;51.986;4.666;2023-06-14T12:50:52;1139.93;;;999.90;;
38615;SDS011;24370;51.986;4.666;2023-06-14T12:53:17;1159.13;;;999.90;;
38615;SDS011;24370;51.986;4.666;2023-06-14T12:55:43;1154.80;;;999.90;;
38615;SDS011;24370;51.986;4.666;2023-06-14T12:58:09;1138.88;;;999.90;;
38615;SDS011;24370;51.986;4.666;2023-06-14T13:00:35;1148.03;;;999.90;;
38615;SDS011;24370;51.986;4.666;2023-06-14T13:03:00;1123.60;;;999.90;;
38615;SDS011;24370;51.986;4.666;2023-06-14T13:05:26;1169.43;;;999.90;;
38615;SDS011;24370;51.986;4.666;2023-06-14T13:07:51;1187.88;;;999.90;;
38615;SDS011;24370;51.986;4.666;2023-06-14T13:10:17;1276.25;;;999.90;;
38615;SDS011;24370;51.986;4.666;2023-06-14T13:12:43;1158.07;;;999.90;;
38615;SDS011;24370;51.986;4.666;2023-06-14T13:15:08;1251.22;;;999.90;;
38615;SDS011;24370;51.986;4.666;2023-06-14T13:17:37;1286.03;;;999.90;;
38615;SDS011;24370;51.986;4.666;2023-06-14T13:20:07;1197.85;;;999.90;;
38615;SDS011;24370;51.986;4.666;2023-06-14T13:22:33;1234.65;;;999.90;;
38615;SDS011;24370;51.986;4.666;2023-06-14T13:25:00;1323.53;;;999.90;;
38615;SDS011;24370;51.986;4.666;2023-06-14T13:27:26;1284.97;;;999.90;;
38615;SDS011;24370;51.986;4.666;2023-06-14T13:29:52;1301.07;;;999.90;;
38615;SDS011;24370;51.986;4.666;2023-06-14T13:32:17;1277.15;;;999.90;;
38615;SDS011;24370;51.986;4.666;2023-06-14T13:34:42;1320.65;;;999.90;;
38615;SDS011;24370;51.986;4.666;2023-06-14T13:37:08;1693.72;;;999.90;;
38615;SDS011;24370;51.986;4.666;2023-06-14T13:39:33;1999.90;;;999.90;;
38615;SDS011;24370;51.986;4.666;2023-06-14T13:41:59;1491.80;;;999.90;;
38615;SDS011;24370;51.986;4.666;2023-06-14T13:44:24;1280.40;;;999.90;;
38615;SDS011;24370;51.986;4.666;2023-06-14T13:46:50;1521.45;;;999.90;;
38615;SDS011;24370;51.986;4.666;2023-06-14T13:49:15;1286.80;;;999.90;;
38615;SDS011;24370;51.986;4.666;2023-06-14T13:51:41;1999.90;;;999.90;;
38615;SDS011;24370;51.986;4.666;2023-06-14T13:54:06;1258.15;;;999.90;;
38615;SDS011;24370;51.986;4.666;2023-06-14T13:56:31;1313.68;;;999.90;;
38615;SDS011;24370;51.986;4.666;2023-06-14T13:58:57;1264.93;;;999.90;;
38615;SDS011;24370;51.986;4.666;2023-06-14T14:01:22;1313.47;;;999.90;;
38615;SDS011;24370;51.986;4.666;2023-06-14T14:03:49;1533.30;;;999.90;;